sensor_id;sensor_type;location;lat;lon;timestamp;P1;durP1;ratioP1;P2;durP2;ratioP2
45314;SDS011;31051;51.540;5.852;2024-01-11T00:11:48;16.1;;;12.7;;
45314;SDS011;31051;51.540;5.852;2024-01-11T00:24:23;16.0;;;13.0;;
45314;SDS011;31051;51.540;5.852;2024-01-11T00:36:59;17.0;;;13.4;;
45314;SDS011;31051;51.540;5.852;2024-01-11T00:49:34;16.1;;;12.9;;
45314;SDS011;31051;51.540;5.852;2024-01-11T01:02:10;17.6;;;13.3;;
45314;SDS011;31051;51.540;5.852;2024-01-11T01:14:46;16.6;;;13.4;;
45314;SDS011;31051;51.540;5.852;2024-01-11T01:27:21;17.3;;;13.5;;
45314;SDS011;31051;51.540;5.852;2024-01-11T01:39:57;16.7;;;12.9;;
45314;SDS011;31051;51.540;5.852;2024-01-11T01:52:33;16.9;;;13.2;;
45314;SDS011;31051;51.540;5.852;2024-01-11T02:05:08;18.1;;;14.1;;
45314;SDS011;31051;51.540;5.852;2024-01-11T02:17:44;18.1;;;14.0;;
45314;SDS011;31051;51.540;5.852;2024-01-11T02:30:19;18.6;;;14.6;;
45314;SDS011;31051;51.540;5.852;2024-01-11T02:42:55;18.0;;;14.4;;
45314;SDS011;31051;51.540;5.852;2024-01-11T02:55:30;17.6;;;14.2;;
45314;SDS011;31051;51.540;5.852;2024-01-11T03:08:06;18.7;;;14.7;;
45314;SDS011;31051;51.540;5.852;2024-01-11T03:20:42;19.1;;;14.9;;
45314;SDS011;31051;51.540;5.852;2024-01-11T03:33:17;17.6;;;13.8;;
45314;SDS011;31051;51.540;5.852;2024-01-11T03:45:53;17.5;;;13.6;;
45314;SDS011;31051;51.540;5.852;2024-01-11T03:58:28;16.7;;;13.4;;
45314;SDS011;31051;51.540;5.852;2024-01-11T04:11:04;17.6;;;14.0;;
45314;SDS011;31051;51.540;5.852;2024-01-11T04:23:40;17.6;;;14.1;;
45314;SDS011;31051;51.540;5.852;2024-01-11T04:36:15;17.7;;;14.0;;
45314;SDS011;31051;51.540;5.852;2024-01-11T04:48:51;18.1;;;13.8;;
45314;SDS011;31051;51.540;5.852;2024-01-11T05:01:26;17.5;;;13.4;;
45314;SDS011;31051;51.540;5.852;2024-01-11T05:14:02;18.6;;;13.7;;
45314;SDS011;31051;51.540;5.852;2024-01-11T05:26:38;17.0;;;12.9;;
45314;SDS011;31051;51.540;5.852;2024-01-11T05:39:13;15.0;;;11.8;;
45314;SDS011;31051;51.540;5.852;2024-01-11T05:51:49;15.2;;;11.8;;
45314;SDS011;31051;51.540;5.852;2024-01-11T06:04:24;15.7;;;11.9;;
45314;SDS011;31051;51.540;5.852;2024-01-11T06:17:00;13.9;;;10.9;;
45314;SDS011;31051;51.540;5.852;2024-01-11T06:29:36;13.4;;;11.0;;
45314;SDS011;31051;51.540;5.852;2024-01-11T06:42:11;12.8;;;10.7;;
45314;SDS011;31051;51.540;5.852;2024-01-11T06:54:47;13.2;;;11.0;;
45314;SDS011;31051;51.540;5.852;2024-01-11T07:07:22;15.0;;;11.5;;
45314;SDS011;31051;51.540;5.852;2024-01-11T07:19:58;14.5;;;11.2;;
45314;SDS011;31051;51.540;5.852;2024-01-11T07:32:34;14.3;;;11.7;;
45314;SDS011;31051;51.540;5.852;2024-01-11T07:45:09;13.8;;;11.1;;
45314;SDS011;31051;51.540;5.852;2024-01-11T07:57:45;12.9;;;10.4;;
45314;SDS011;31051;51.540;5.852;2024-01-11T08:10:20;14.0;;;10.7;;
45314;SDS011;31051;51.540;5.852;2024-01-11T08:22:56;13.6;;;11.4;;
45314;SDS011;31051;51.540;5.852;2024-01-11T08:35:32;13.8;;;11.5;;
45314;SDS011;31051;51.540;5.852;2024-01-11T08:48:07;13.6;;;10.8;;
45314;SDS011;31051;51.540;5.852;2024-01-11T09:00:43;12.6;;;10.3;;
45314;SDS011;31051;51.540;5.852;2024-01-11T09:13:18;13.6;;;10.7;;
45314;SDS011;31051;51.540;5.852;2024-01-11T09:25:54;12.4;;;10.1;;
45314;SDS011;31051;51.540;5.852;2024-01-11T09:38:30;12.9;;;10.6;;
45314;SDS011;31051;51.540;5.852;2024-01-11T09:51:05;13.9;;;11.1;;
45314;SDS011;31051;51.540;5.852;2024-01-11T10:03:41;13.3;;;10.8;;
45314;SDS011;31051;51.540;5.852;2024-01-11T10:16:17;14.4;;;11.2;;
45314;SDS011;31051;51.540;5.852;2024-01-11T10:28:52;15.2;;;11.4;;
45314;SDS011;31051;51.540;5.852;2024-01-11T10:41:28;15.3;;;11.7;;
45314;SDS011;31051;51.540;5.852;2024-01-11T10:54:04;14.5;;;11.5;;
45314;SDS011;31051;51.540;5.852;2024-01-11T11:06:40;14.2;;;12.0;;
45314;SDS011;31051;51.540;5.852;2024-01-11T11:19:15;14.5;;;11.6;;
45314;SDS011;31051;51.540;5.852;2024-01-11T11:31:51;15.4;;;12.5;;
45314;SDS011;31051;51.540;5.852;2024-01-11T11:44:27;15.4;;;13.0;;
45314;SDS011;31051;51.540;5.852;2024-01-11T11:57:02;16.5;;;13.5;;
45314;SDS011;31051;51.540;5.852;2024-01-11T12:09:38;17.7;;;14.0;;
45314;SDS011;31051;51.540;5.852;2024-01-11T12:22:14;19.2;;;16.0;;
45314;SDS011;31051;51.540;5.852;2024-01-11T12:34:50;16.3;;;13.5;;
45314;SDS011;31051;51.540;5.852;2024-01-11T12:47:25;15.2;;;12.2;;
45314;SDS011;31051;51.540;5.852;2024-01-11T13:00:01;14.9;;;13.1;;
45314;SDS011;31051;51.540;5.852;2024-01-11T13:12:37;10.3;;;9.3;;
45314;SDS011;31051;51.540;5.852;2024-01-11T13:25:12;8.3;;;7.2;;
45314;SDS011;31051;51.540;5.852;2024-01-11T13:37:48;9.1;;;7.0;;
45314;SDS011;31051;51.540;5.852;2024-01-11T13:50:24;9.1;;;7.2;;
45314;SDS011;31051;51.540;5.852;2024-01-11T14:02:59;9.6;;;7.0;;
45314;SDS011;31051;51.540;5.852;2024-01-11T14:15:35;8.6;;;6.4;;
45314;SDS011;31051;51.540;5.852;2024-01-11T14:28:11;8.6;;;6.6;;
45314;SDS011;31051;51.540;5.852;2024-01-11T14:40:46;7.2;;;5.8;;
45314;SDS011;31051;51.540;5.852;2024-01-11T14:53:22;8.3;;;6.6;;
45314;SDS011;31051;51.540;5.852;2024-01-11T15:05:58;8.3;;;6.6;;
45314;SDS011;31051;51.540;5.852;2024-01-11T15:18:34;8.1;;;6.8;;
45314;SDS011;31051;51.540;5.852;2024-01-11T15:31:09;9.1;;;7.1;;
45314;SDS011;31051;51.540;5.852;2024-01-11T15:43:45;11.2;;;8.2;;
45314;SDS011;31051;51.540;5.852;2024-01-11T15:56:21;12.5;;;9.1;;
45314;SDS011;31051;51.540;5.852;2024-01-11T16:08:56;11.6;;;8.5;;
45314;SDS011;31051;51.540;5.852;2024-01-11T16:21:32;12.1;;;9.0;;
45314;SDS011;31051;51.540;5.852;2024-01-11T16:34:08;14.3;;;9.5;;
45314;SDS011;31051;51.540;5.852;2024-01-11T16:46:43;15.4;;;9.8;;
45314;SDS011;31051;51.540;5.852;2024-01-11T16:59:19;14.9;;;9.9;;
45314;SDS011;31051;51.540;5.852;2024-01-11T17:11:55;13.6;;;9.8;;
45314;SDS011;31051;51.540;5.852;2024-01-11T17:24:30;16.4;;;11.1;;
45314;SDS011;31051;51.540;5.852;2024-01-11T17:37:06;15.8;;;10.8;;
45314;SDS011;31051;51.540;5.852;2024-01-11T17:49:42;15.9;;;10.6;;
45314;SDS011;31051;51.540;5.852;2024-01-11T18:02:17;16.6;;;10.7;;
45314;SDS011;31051;51.540;5.852;2024-01-11T18:14:53;16.4;;;10.8;;
45314;SDS011;31051;51.540;5.852;2024-01-11T18:27:29;18.9;;;11.7;;
45314;SDS011;31051;51.540;5.852;2024-01-11T18:40:04;18.1;;;12.2;;
45314;SDS011;31051;51.540;5.852;2024-01-11T18:52:40;19.2;;;12.9;;
45314;SDS011;31051;51.540;5.852;2024-01-11T19:05:16;22.0;;;13.7;;
45314;SDS011;31051;51.540;5.852;2024-01-11T19:17:52;22.2;;;13.8;;
45314;SDS011;31051;51.540;5.852;2024-01-11T19:30:27;21.9;;;14.1;;
45314;SDS011;31051;51.540;5.852;2024-01-11T19:43:03;22.6;;;14.6;;
45314;SDS011;31051;51.540;5.852;2024-01-11T19:55:39;21.4;;;14.6;;
45314;SDS011;31051;51.540;5.852;2024-01-11T20:08:14;18.6;;;13.3;;
45314;SDS011;31051;51.540;5.852;2024-01-11T20:20:50;20.0;;;14.1;;
45314;SDS011;31051;51.540;5.852;2024-01-11T20:33:26;19.4;;;13.3;;
45314;SDS011;31051;51.540;5.852;2024-01-11T20:46:01;19.3;;;13.9;;
45314;SDS011;31051;51.540;5.852;2024-01-11T20:58:37;18.2;;;13.3;;
45314;SDS011;31051;51.540;5.852;2024-01-11T21:11:13;23.4;;;16.0;;
45314;SDS011;31051;51.540;5.852;2024-01-11T21:23:48;23.6;;;16.9;;
45314;SDS011;31051;51.540;5.852;2024-01-11T21:36:24;26.5;;;18.7;;
45314;SDS011;31051;51.540;5.852;2024-01-11T21:49:00;25.8;;;18.8;;
45314;SDS011;31051;51.540;5.852;2024-01-11T22:01:35;29.7;;;19.8;;
45314;SDS011;31051;51.540;5.852;2024-01-11T22:14:11;27.2;;;19.4;;
45314;SDS011;31051;51.540;5.852;2024-01-11T22:26:47;25.8;;;19.8;;
45314;SDS011;31051;51.540;5.852;2024-01-11T22:39:23;24.6;;;19.5;;
45314;SDS011;31051;51.540;5.852;2024-01-11T22:51:58;27.2;;;20.1;;
45314;SDS011;31051;51.540;5.852;2024-01-11T23:04:34;26.7;;;20.2;;
45314;SDS011;31051;51.540;5.852;2024-01-11T23:17:10;27.4;;;19.9;;
45314;SDS011;31051;51.540;5.852;2024-01-11T23:29:45;23.2;;;18.8;;
45314;SDS011;31051;51.540;5.852;2024-01-11T23:42:21;22.5;;;17.7;;
45314;SDS011;31051;51.540;5.852;2024-01-11T23:54:57;22.5;;;19.0;;
